Sunday, November 18, 2018, 9:39 AM EST
Back to Local

KILG, Wilmington New Castle Co

Location: New Castle, DE, United States Lat: 39.667
Local Time: 9:39 AM EST (14:39 GMT) Lon: -75.6
Time Zone: US/Eastern Elev: 78 ft

Show me the last for .
Show Decoded

2018-11-18 08:51 METAR KILG 181351Z 00000KT 7SM CLR 04/01 A3040 RMK AO2 SLP293 T00390011 $ =
2018-11-18 07:51 METAR KILG 181251Z 00000KT 7SM SCT043 01/M01 A3039 RMK AO2 SLP290 T00111011 $ =
2018-11-18 06:51 METAR KILG 181151Z 31004KT 6SM BR BKN050 M01/M02 A3038 RMK AO2 SLP290 T10061017
                 10017 21017 53013 $ =
2018-11-18 06:20 METAR KILG 181120Z 34003KT 7SM CLR M01/M02 A3037 RMK AO2 T10061022 $ =
2018-11-18 05:51 METAR KILG 181051Z AUTO 29003KT 8SM FEW050 M01/M02 A3037 RMK AO2 SLP286
                 T10061022 =
2018-11-18 04:51 METAR KILG 180951Z AUTO 00000KT 9SM CLR 00/M02 A3035 RMK AO2 SLP279 T00001022 =
2018-11-18 03:51 METAR KILG 180851Z AUTO 32003KT 10SM CLR 01/M02 A3035 RMK AO2 SLP276 T00061017
                 53003 =
2018-11-18 02:51 METAR KILG 180751Z AUTO 33005KT 8SM CLR M02/M03 A3034 RMK AO2 SLP275 T10171033 =
2018-11-18 01:51 METAR KILG 180651Z AUTO 30003KT 10SM CLR 01/M02 A3034 RMK AO2 SLP273 T00061017 =
2018-11-18 00:51 METAR KILG 180551Z AUTO 00000KT 10SM CLR 02/M01 A3034 RMK AO2 SLP272 T00171011
                 10050 21011 58001 =
2018-11-17 23:51 METAR KILG 180451Z AUTO 28004KT 10SM CLR 02/M01 A3035 RMK AO2 SLP276 T00171011
                 401060006 =
2018-11-17 22:51 METAR KILG 180351Z 31003KT 10SM CLR 02/M01 A3034 RMK AO2 SLP274 T00171011 =
2018-11-17 21:51 METAR KILG 180251Z 00000KT 10SM CLR 03/M01 A3034 RMK AO2 SLP273 T00331011 53012
                 =
2018-11-17 19:51 METAR KILG 180051Z 28003KT 10SM CLR 04/M01 A3031 RMK AO2 SLP263 T00441011 =
2018-11-17 18:51 METAR KILG 172351Z 26004KT 10SM CLR 05/M01 A3030 RMK AO2 SLP261 T00501011 10100
                 20044 51018 =
2018-11-17 17:51 METAR KILG 172251Z 27004KT 10SM CLR 06/M01 A3029 RMK AO2 SLP255 T00561011 =
2018-11-17 16:51 METAR KILG 172151Z 32007KT 10SM CLR 05/M01 A3027 RMK AO2 SLP252 T00501011 =
2018-11-17 15:51 METAR KILG 172051Z 30008KT 10SM CLR 08/M01 A3025 RMK AO2 SLP242 T00831006 53004
                 =
2018-11-17 14:51 METAR KILG 171951Z 31009KT 10SM CLR 09/M01 A3023 RMK AO2 SLP238 T00891006 =
2018-11-17 13:51 METAR KILG 171851Z 28009KT 10SM CLR 09/M01 A3022 RMK AO2 SLP235 T00941006 =
2018-11-17 12:51 METAR KILG 171751Z 33018G23KT 10SM BKN041 09/M01 A3024 RMK AO2 SLP238 T00941006
                 10106 20033 58004 =
2018-11-17 11:51 METAR KILG 171651Z 30015G21KT 10SM BKN042 08/M01 A3025 RMK AO2 SLP242 T00831006
                 =
2018-11-17 10:51 METAR KILG 171551Z 32011G21KT 10SM OVC042 08/M01 A3026 RMK AO2 SLP246 T00831006
                 =
2018-11-17 09:51 METAR KILG 171451Z 28008KT 10SM CLR 08/00 A3025 RMK AO2 SLP242 T00780000 51016 =

Support USWX by starting your Amazon purchase here.